sensor_id;sensor_type;location;lat;lon;timestamp;pressure;altitude;pressure_sealevel;temperature;humidity
50672;BME280;46021;55.882;37.654;2023-05-19T00:02:17;100132.59;;;13.92;73.75
50672;BME280;46021;55.882;37.654;2023-05-19T00:04:45;100137.19;;;13.85;72.17
50672;BME280;46021;55.882;37.654;2023-05-19T00:07:17;100127.19;;;13.73;72.52
50672;BME280;46021;55.882;37.654;2023-05-19T00:09:45;100141.19;;;13.72;72.21
50672;BME280;46021;55.882;37.654;2023-05-19T00:12:15;100142.13;;;13.71;71.94
50672;BME280;46021;55.882;37.654;2023-05-19T00:14:42;100133.81;;;13.59;72.17
50672;BME280;46021;55.882;37.654;2023-05-19T00:17:10;100148.13;;;13.49;73.55
50672;BME280;46021;55.882;37.654;2023-05-19T00:19:37;100139.63;;;13.44;73.00
50672;BME280;46021;55.882;37.654;2023-05-19T00:22:04;100147.56;;;13.41;73.31
50672;BME280;46021;55.882;37.654;2023-05-19T00:24:32;100157.59;;;13.28;73.10
50672;BME280;46021;55.882;37.654;2023-05-19T00:26:59;100159.28;;;13.31;72.47
50672;BME280;46021;55.882;37.654;2023-05-19T00:29:28;100161.19;;;13.25;72.95
50672;BME280;46021;55.882;37.654;2023-05-19T00:31:55;100163.09;;;13.20;72.67
50672;BME280;46021;55.882;37.654;2023-05-19T00:34:22;100171.03;;;13.17;72.36
50672;BME280;46021;55.882;37.654;2023-05-19T00:36:50;100164.00;;;13.19;72.33
50672;BME280;46021;55.882;37.654;2023-05-19T00:39:17;100170.09;;;13.20;72.51
50672;BME280;46021;55.882;37.654;2023-05-19T00:41:44;100168.28;;;13.22;72.63
50672;BME280;46021;55.882;37.654;2023-05-19T00:44:11;100168.16;;;13.25;72.49
50672;BME280;46021;55.882;37.654;2023-05-19T00:46:39;100169.88;;;13.26;73.09
50672;BME280;46021;55.882;37.654;2023-05-19T00:49:07;100168.09;;;13.26;73.00
50672;BME280;46021;55.882;37.654;2023-05-19T00:51:34;100175.06;;;13.27;73.44
50672;BME280;46021;55.882;37.654;2023-05-19T00:54:02;100175.06;;;13.27;72.67
50672;BME280;46021;55.882;37.654;2023-05-19T00:56:30;100163.09;;;13.20;72.77
50672;BME280;46021;55.882;37.654;2023-05-19T00:58:59;100177.84;;;13.23;72.58
50672;BME280;46021;55.882;37.654;2023-05-19T01:01:27;100169.34;;;13.16;73.00
50672;BME280;46021;55.882;37.654;2023-05-19T01:03:55;100172.19;;;13.10;72.69
50672;BME280;46021;55.882;37.654;2023-05-19T01:06:23;100181.97;;;13.05;73.07
50672;BME280;46021;55.882;37.654;2023-05-19T01:08:53;100179.75;;;12.93;73.68
50672;BME280;46021;55.882;37.654;2023-05-19T01:11:20;100185.19;;;12.86;73.51
50672;BME280;46021;55.882;37.654;2023-05-19T01:13:47;100193.34;;;12.77;73.41
50672;BME280;46021;55.882;37.654;2023-05-19T01:16:21;100198.97;;;12.65;73.85
50672;BME280;46021;55.882;37.654;2023-05-19T01:19:03;100204.47;;;12.57;73.53
50672;BME280;46021;55.882;37.654;2023-05-19T01:25:12;100213.50;;;12.17;72.24
50672;BME280;46021;55.882;37.654;2023-05-19T01:30:51;100214.38;;;11.86;71.76
50672;BME280;46021;55.882;37.654;2023-05-19T01:33:20;100219.97;;;11.74;71.65
50672;BME280;46021;55.882;37.654;2023-05-19T01:35:49;100218.53;;;11.62;71.81
50672;BME280;46021;55.882;37.654;2023-05-19T01:38:18;100233.56;;;11.54;71.78
50672;BME280;46021;55.882;37.654;2023-05-19T01:40:48;100242.44;;;11.47;71.78
50672;BME280;46021;55.882;37.654;2023-05-19T01:43:19;100235.72;;;11.38;71.72
50672;BME280;46021;55.882;37.654;2023-05-19T01:45:49;100242.91;;;11.28;71.91
50672;BME280;46021;55.882;37.654;2023-05-19T01:48:17;100244.72;;;11.26;71.56
50672;BME280;46021;55.882;37.654;2023-05-19T01:50:44;100250.13;;;11.19;71.56
50672;BME280;46021;55.882;37.654;2023-05-19T01:53:12;100252.88;;;11.14;71.54
50672;BME280;46021;55.882;37.654;2023-05-19T01:55:42;100257.28;;;11.10;71.32
50672;BME280;46021;55.882;37.654;2023-05-19T01:58:17;100249.66;;;11.03;71.00
50672;BME280;46021;55.882;37.654;2023-05-19T02:00:51;100246.47;;;10.91;70.57
50672;BME280;46021;55.882;37.654;2023-05-19T02:03:29;100260.34;;;10.92;70.97
50672;BME280;46021;55.882;37.654;2023-05-19T02:06:02;100258.59;;;10.92;70.75
50672;BME280;46021;55.882;37.654;2023-05-19T02:08:42;100267.31;;;10.91;70.73
50672;BME280;46021;55.882;37.654;2023-05-19T02:11:13;100257.09;;;10.82;71.02
50672;BME280;46021;55.882;37.654;2023-05-19T02:13:48;100257.94;;;10.84;70.78
50672;BME280;46021;55.882;37.654;2023-05-19T02:16:18;100250.28;;;10.77;70.27
50672;BME280;46021;55.882;37.654;2023-05-19T02:18:47;100236.84;;;10.56;70.49
50672;BME280;46021;55.882;37.654;2023-05-19T02:21:16;100258.56;;;10.57;70.47
50672;BME280;46021;55.882;37.654;2023-05-19T02:23:44;100251.69;;;10.52;70.59
50672;BME280;46021;55.882;37.654;2023-05-19T02:26:11;100251.69;;;10.52;70.51
50672;BME280;46021;55.882;37.654;2023-05-19T02:28:38;100255.94;;;10.57;70.25
50672;BME280;46021;55.882;37.654;2023-05-19T02:31:06;100249.06;;;10.54;70.37
50672;BME280;46021;55.882;37.654;2023-05-19T02:33:36;100256.88;;;10.54;69.93
50672;BME280;46021;55.882;37.654;2023-05-19T02:36:03;100256.91;;;10.52;70.30
50672;BME280;46021;55.882;37.654;2023-05-19T02:38:31;100262.94;;;10.54;69.85
50672;BME280;46021;55.882;37.654;2023-05-19T02:40:58;100256.91;;;10.52;69.84
50672;BME280;46021;55.882;37.654;2023-05-19T02:43:25;100262.41;;;10.40;69.71
50672;BME280;46021;55.882;37.654;2023-05-19T02:45:55;100263.28;;;10.39;70.03
50672;BME280;46021;55.882;37.654;2023-05-19T02:48:22;100267.63;;;10.40;70.23
50672;BME280;46021;55.882;37.654;2023-05-19T02:50:51;100253.22;;;10.21;70.95
50672;BME280;46021;55.882;37.654;2023-05-19T02:53:18;100264.59;;;10.17;70.99
50672;BME280;46021;55.882;37.654;2023-05-19T02:55:45;100265.53;;;10.14;70.91
50672;BME280;46021;55.882;37.654;2023-05-19T02:58:12;100262.91;;;10.15;70.83
50672;BME280;46021;55.882;37.654;2023-05-19T03:00:39;100266.19;;;10.24;70.74
50672;BME280;46021;55.882;37.654;2023-05-19T03:03:06;100271.31;;;10.28;70.72
50672;BME280;46021;55.882;37.654;2023-05-19T03:05:34;100265.50;;;10.15;71.83
50672;BME280;46021;55.882;37.654;2023-05-19T03:08:03;100273.38;;;10.12;71.76
50672;BME280;46021;55.882;37.654;2023-05-19T03:10:30;100274.31;;;10.10;71.67
50672;BME280;46021;55.882;37.654;2023-05-19T03:12:58;100281.41;;;10.02;71.90
50672;BME280;46021;55.882;37.654;2023-05-19T03:15:25;100279.59;;;10.05;71.79
50672;BME280;46021;55.882;37.654;2023-05-19T03:17:52;100282.09;;;10.11;71.67
50672;BME280;46021;55.882;37.654;2023-05-19T03:20:19;100275.28;;;10.04;72.02
50672;BME280;46021;55.882;37.654;2023-05-19T03:22:47;100276.25;;;10.00;71.78
50672;BME280;46021;55.882;37.654;2023-05-19T03:25:15;100289.13;;;10.06;72.06
50672;BME280;46021;55.882;37.654;2023-05-19T03:27:42;100292.53;;;10.10;71.77
50672;BME280;46021;55.882;37.654;2023-05-19T03:30:11;100289.84;;;10.13;72.00
50672;BME280;46021;55.882;37.654;2023-05-19T03:32:51;100291.63;;;10.11;71.55
50672;BME280;46021;55.882;37.654;2023-05-19T03:35:18;100299.50;;;10.09;71.71
50672;BME280;46021;55.882;37.654;2023-05-19T03:37:45;100296.00;;;10.10;71.77
50672;BME280;46021;55.882;37.654;2023-05-19T03:40:14;100299.44;;;10.12;71.60
50672;BME280;46021;55.882;37.654;2023-05-19T03:42:45;100300.44;;;10.05;72.25
50672;BME280;46021;55.882;37.654;2023-05-19T03:45:13;100302.22;;;10.02;72.15
50672;BME280;46021;55.882;37.654;2023-05-19T03:47:41;100304.78;;;10.05;72.24
50672;BME280;46021;55.882;37.654;2023-05-19T03:50:25;100291.72;;;10.08;72.75
50672;BME280;46021;55.882;37.654;2023-05-19T03:53:07;100309.63;;;10.25;71.95
50672;BME280;46021;55.882;37.654;2023-05-19T03:55:41;100306.06;;;10.27;72.42
50672;BME280;46021;55.882;37.654;2023-05-19T03:58:09;100307.69;;;10.34;72.13
50672;BME280;46021;55.882;37.654;2023-05-19T04:00:39;100311.22;;;10.32;71.79
50672;BME280;46021;55.882;37.654;2023-05-19T04:03:06;100312.09;;;10.32;71.85
50672;BME280;46021;55.882;37.654;2023-05-19T04:05:33;100314.72;;;10.31;72.14
50672;BME280;46021;55.882;37.654;2023-05-19T04:08:01;100317.53;;;10.19;72.88
50672;BME280;46021;55.882;37.654;2023-05-19T04:10:28;100314.09;;;10.17;72.79
50672;BME280;46021;55.882;37.654;2023-05-19T04:12:56;100316.59;;;10.23;72.40
50672;BME280;46021;55.882;37.654;2023-05-19T04:15:25;100314.88;;;10.22;72.17
50672;BME280;46021;55.882;37.654;2023-05-19T04:17:52;100313.00;;;10.28;72.44
50672;BME280;46021;55.882;37.654;2023-05-19T04:20:19;100317.28;;;10.34;72.81
50672;BME280;46021;55.882;37.654;2023-05-19T04:22:46;100311.16;;;10.35;72.43
50672;BME280;46021;55.882;37.654;2023-05-19T04:25:13;100315.44;;;10.38;73.09
50672;BME280;46021;55.882;37.654;2023-05-19T04:27:41;100314.41;;;10.46;72.92
50672;BME280;46021;55.882;37.654;2023-05-19T04:30:10;100312.59;;;10.50;72.83
50672;BME280;46021;55.882;37.654;2023-05-19T04:32:38;100321.19;;;10.53;72.78
50672;BME280;46021;55.882;37.654;2023-05-19T04:35:06;100315.09;;;10.54;72.62
50672;BME280;46021;55.882;37.654;2023-05-19T04:37:33;100327.91;;;10.64;72.76
50672;BME280;46021;55.882;37.654;2023-05-19T04:40:03;100323.41;;;10.72;72.87
50672;BME280;46021;55.882;37.654;2023-05-19T04:42:33;100326.84;;;10.74;72.96
50672;BME280;46021;55.882;37.654;2023-05-19T04:45:02;100327.72;;;10.73;73.23
50672;BME280;46021;55.882;37.654;2023-05-19T04:47:33;100332.13;;;10.71;73.51
50672;BME280;46021;55.882;37.654;2023-05-19T04:50:01;100335.50;;;10.75;73.22
50672;BME280;46021;55.882;37.654;2023-05-19T04:52:29;100333.75;;;10.75;73.54
50672;BME280;46021;55.882;37.654;2023-05-19T04:54:57;100331.09;;;10.78;73.05
50672;BME280;46021;55.882;37.654;2023-05-19T04:57:24;100334.53;;;10.80;72.96
50672;BME280;46021;55.882;37.654;2023-05-19T04:59:52;100336.09;;;10.87;72.86
50672;BME280;46021;55.882;37.654;2023-05-19T05:02:24;100340.31;;;10.95;73.47
50672;BME280;46021;55.882;37.654;2023-05-19T05:04:54;100332.38;;;10.98;73.18
50672;BME280;46021;55.882;37.654;2023-05-19T05:07:21;100329.72;;;11.01;72.94
50672;BME280;46021;55.882;37.654;2023-05-19T05:09:51;100333.19;;;11.01;72.96
50672;BME280;46021;55.882;37.654;2023-05-19T05:12:18;100336.59;;;11.03;72.81
50672;BME280;46021;55.882;37.654;2023-05-19T05:14:47;100334.81;;;11.05;73.10
50672;BME280;46021;55.882;37.654;2023-05-19T05:17:14;100327.97;;;11.01;73.21
50672;BME280;46021;55.882;37.654;2023-05-19T05:19:42;100337.34;;;11.10;72.96
50672;BME280;46021;55.882;37.654;2023-05-19T05:22:11;100338.19;;;11.10;73.31
50672;BME280;46021;55.882;37.654;2023-05-19T05:24:39;100334.59;;;11.15;72.97
50672;BME280;46021;55.882;37.654;2023-05-19T05:27:07;100345.84;;;11.17;72.76
50672;BME280;46021;55.882;37.654;2023-05-19T05:29:35;100332.13;;;11.10;72.89
50672;BME280;46021;55.882;37.654;2023-05-19T05:32:04;100349.56;;;11.08;72.39
50672;BME280;46021;55.882;37.654;2023-05-19T05:34:33;100346.06;;;11.07;72.55
50672;BME280;46021;55.882;37.654;2023-05-19T05:37:00;100350.34;;;11.11;74.00
50672;BME280;46021;55.882;37.654;2023-05-19T05:39:29;100351.19;;;11.12;72.80
50672;BME280;46021;55.882;37.654;2023-05-19T05:41:57;100353.78;;;11.14;73.00
50672;BME280;46021;55.882;37.654;2023-05-19T05:44:24;100353.63;;;11.20;73.07
50672;BME280;46021;55.882;37.654;2023-05-19T05:46:52;100354.41;;;11.23;72.79
50672;BME280;46021;55.882;37.654;2023-05-19T05:49:19;100358.63;;;11.29;72.69
50672;BME280;46021;55.882;37.654;2023-05-19T05:51:47;100365.38;;;11.38;72.81
50672;BME280;46021;55.882;37.654;2023-05-19T05:54:17;100355.69;;;11.43;72.88
50672;BME280;46021;55.882;37.654;2023-05-19T05:56:47;100357.19;;;11.53;72.74
50672;BME280;46021;55.882;37.654;2023-05-19T05:59:15;100353.56;;;11.59;72.81
50672;BME280;46021;55.882;37.654;2023-05-19T06:01:43;100356.69;;;11.71;72.74
50672;BME280;46021;55.882;37.654;2023-05-19T06:04:10;100361.44;;;11.92;72.75
50672;BME280;46021;55.882;37.654;2023-05-19T06:06:37;100366.28;;;12.05;72.56
50672;BME280;46021;55.882;37.654;2023-05-19T06:09:05;100358.91;;;12.21;71.95
50672;BME280;46021;55.882;37.654;2023-05-19T06:11:32;100358.50;;;12.35;71.90
50672;BME280;46021;55.882;37.654;2023-05-19T06:14:01;100351.28;;;12.43;71.40
50672;BME280;46021;55.882;37.654;2023-05-19T06:16:52;100360.41;;;12.60;70.84
50672;BME280;46021;55.882;37.654;2023-05-19T06:19:20;100351.59;;;12.62;70.71
50672;BME280;46021;55.882;37.654;2023-05-19T06:21:50;100359.22;;;12.70;70.06
50672;BME280;46021;55.882;37.654;2023-05-19T06:24:17;100360.22;;;12.66;70.11
50672;BME280;46021;55.882;37.654;2023-05-19T06:26:44;100357.81;;;12.60;69.66
50672;BME280;46021;55.882;37.654;2023-05-19T06:29:13;100359.41;;;12.64;70.32
50672;BME280;46021;55.882;37.654;2023-05-19T06:31:40;100346.16;;;12.70;70.31
50672;BME280;46021;55.882;37.654;2023-05-19T06:34:10;100351.16;;;12.78;70.02
50672;BME280;46021;55.882;37.654;2023-05-19T06:36:41;100354.94;;;12.97;69.01
50672;BME280;46021;55.882;37.654;2023-05-19T06:39:09;100350.50;;;12.99;68.36
50672;BME280;46021;55.882;37.654;2023-05-19T06:41:36;100352.81;;;13.10;68.06
50672;BME280;46021;55.882;37.654;2023-05-19T06:44:06;100360.66;;;13.10;68.13
50672;BME280;46021;55.882;37.654;2023-05-19T06:46:35;100357.22;;;13.08;68.71
50672;BME280;46021;55.882;37.654;2023-05-19T06:49:03;100357.16;;;13.10;68.05
50672;BME280;46021;55.882;37.654;2023-05-19T06:51:34;100364.69;;;13.20;68.25
50672;BME280;46021;55.882;37.654;2023-05-19T06:54:01;100363.44;;;13.32;68.04
50672;BME280;46021;55.882;37.654;2023-05-19T06:56:28;100365.06;;;13.36;67.03
50672;BME280;46021;55.882;37.654;2023-05-19T06:58:55;100353.31;;;13.50;66.12
50672;BME280;46021;55.882;37.654;2023-05-19T07:01:29;100359.69;;;13.68;65.52
50672;BME280;46021;55.882;37.654;2023-05-19T07:03:59;100365.75;;;13.68;65.09
50672;BME280;46021;55.882;37.654;2023-05-19T07:06:26;100371.44;;;13.56;63.57
50672;BME280;46021;55.882;37.654;2023-05-19T07:08:53;100370.25;;;13.64;64.25
50672;BME280;46021;55.882;37.654;2023-05-19T07:11:20;100371.94;;;13.67;63.17
50672;BME280;46021;55.882;37.654;2023-05-19T07:13:48;100375.53;;;13.90;62.85
50672;BME280;46021;55.882;37.654;2023-05-19T07:16:21;100382.00;;;14.04;62.25
50672;BME280;46021;55.882;37.654;2023-05-19T07:18:49;100377.13;;;14.19;62.35
50672;BME280;46021;55.882;37.654;2023-05-19T07:21:18;100378.72;;;14.23;60.31
50672;BME280;46021;55.882;37.654;2023-05-19T07:23:46;100380.88;;;14.12;60.95
50672;BME280;46021;55.882;37.654;2023-05-19T07:26:13;100375.06;;;14.27;60.43
50672;BME280;46021;55.882;37.654;2023-05-19T07:28:41;100367.28;;;14.49;60.26
50672;BME280;46021;55.882;37.654;2023-05-19T07:31:08;100384.72;;;14.75;59.64
50672;BME280;46021;55.882;37.654;2023-05-19T07:33:35;100375.75;;;14.81;57.58
50672;BME280;46021;55.882;37.654;2023-05-19T07:36:03;100379.38;;;15.00;57.31
50672;BME280;46021;55.882;37.654;2023-05-19T07:38:32;100382.72;;;15.04;56.39
50672;BME280;46021;55.882;37.654;2023-05-19T07:40:59;100381.16;;;15.22;54.93
50672;BME280;46021;55.882;37.654;2023-05-19T07:43:27;100387.38;;;15.19;53.07
50672;BME280;46021;55.882;37.654;2023-05-19T07:45:54;100376.88;;;15.19;50.99
50672;BME280;46021;55.882;37.654;2023-05-19T07:48:22;100391.53;;;15.25;51.40
50672;BME280;46021;55.882;37.654;2023-05-19T07:50:50;100388.31;;;15.61;51.41
50672;BME280;46021;55.882;37.654;2023-05-19T07:53:18;100372.03;;;15.75;49.03
50672;BME280;46021;55.882;37.654;2023-05-19T07:55:48;100391.81;;;15.62;47.98
50672;BME280;46021;55.882;37.654;2023-05-19T07:58:16;100385.25;;;15.94;49.07
50672;BME280;46021;55.882;37.654;2023-05-19T08:00:44;100393.69;;;16.21;48.54
50672;BME280;46021;55.882;37.654;2023-05-19T08:03:11;100379.63;;;16.43;47.66
50672;BME280;46021;55.882;37.654;2023-05-19T08:05:42;100382.41;;;16.77;47.36
50672;BME280;46021;55.882;37.654;2023-05-19T08:08:09;100376.00;;;17.02;46.17
50672;BME280;46021;55.882;37.654;2023-05-19T08:10:37;100381.66;;;17.31;44.43
50672;BME280;46021;55.882;37.654;2023-05-19T08:13:05;100361.41;;;16.76;42.50
50672;BME280;46021;55.882;37.654;2023-05-19T08:15:32;100377.91;;;16.61;43.79
50672;BME280;46021;55.882;37.654;2023-05-19T08:18:00;100378.03;;;16.76;43.08
50672;BME280;46021;55.882;37.654;2023-05-19T08:20:27;100368.59;;;17.10;43.89
50672;BME280;46021;55.882;37.654;2023-05-19T08:22:54;100371.56;;;17.58;43.08
50672;BME280;46021;55.882;37.654;2023-05-19T08:25:22;100383.25;;;18.05;42.84
50672;BME280;46021;55.882;37.654;2023-05-19T08:27:49;100379.53;;;18.09;41.30
50672;BME280;46021;55.882;37.654;2023-05-19T08:30:17;100392.94;;;18.22;40.15
50672;BME280;46021;55.882;37.654;2023-05-19T08:32:44;100389.94;;;18.12;40.09
50672;BME280;46021;55.882;37.654;2023-05-19T08:35:13;100384.34;;;18.18;40.08
50672;BME280;46021;55.882;37.654;2023-05-19T08:37:40;100388.06;;;18.14;39.39
50672;BME280;46021;55.882;37.654;2023-05-19T08:40:11;100387.19;;;17.98;39.39
50672;BME280;46021;55.882;37.654;2023-05-19T08:42:41;100390.41;;;17.68;39.64
50672;BME280;46021;55.882;37.654;2023-05-19T08:45:09;100394.13;;;17.64;40.32
50672;BME280;46021;55.882;37.654;2023-05-19T08:47:38;100387.88;;;17.30;39.94
50672;BME280;46021;55.882;37.654;2023-05-19T08:50:08;100383.44;;;18.02;40.36
50672;BME280;46021;55.882;37.654;2023-05-19T08:52:44;100373.47;;;19.37;39.38
50672;BME280;46021;55.882;37.654;2023-05-19T08:55:20;100373.34;;;21.14;37.81
50672;BME280;46021;55.882;37.654;2023-05-19T08:57:53;100367.00;;;22.48;35.81
50672;BME280;46021;55.882;37.654;2023-05-19T09:00:22;100365.88;;;21.61;33.06
50672;BME280;46021;55.882;37.654;2023-05-19T09:02:50;100359.56;;;22.53;33.94
50672;BME280;46021;55.882;37.654;2023-05-19T09:05:19;100347.25;;;22.89;33.04
50672;BME280;46021;55.882;37.654;2023-05-19T09:07:47;100358.03;;;23.12;32.56
50672;BME280;46021;55.882;37.654;2023-05-19T09:10:14;100363.91;;;23.88;32.48
50672;BME280;46021;55.882;37.654;2023-05-19T09:12:43;100351.84;;;24.29;31.75
50672;BME280;46021;55.882;37.654;2023-05-19T09:15:12;100365.03;;;24.30;29.88
50672;BME280;46021;55.882;37.654;2023-05-19T09:17:40;100348.78;;;24.90;30.58
50672;BME280;46021;55.882;37.654;2023-05-19T09:20:11;100342.28;;;25.26;30.23
50672;BME280;46021;55.882;37.654;2023-05-19T09:22:41;100340.94;;;25.53;30.14
50672;BME280;46021;55.882;37.654;2023-05-19T09:25:21;100348.59;;;26.00;27.29
50672;BME280;46021;55.882;37.654;2023-05-19T09:27:49;100344.13;;;25.89;27.16
50672;BME280;46021;55.882;37.654;2023-05-19T09:30:16;100348.56;;;25.79;28.05
50672;BME280;46021;55.882;37.654;2023-05-19T09:32:44;100346.81;;;25.68;27.59
50672;BME280;46021;55.882;37.654;2023-05-19T09:35:13;100334.44;;;25.88;28.25
50672;BME280;46021;55.882;37.654;2023-05-19T09:37:42;100336.81;;;25.91;27.28
50672;BME280;46021;55.882;37.654;2023-05-19T09:40:12;100341.53;;;25.78;27.45
50672;BME280;46021;55.882;37.654;2023-05-19T09:42:40;100338.28;;;25.95;27.52
50672;BME280;46021;55.882;37.654;2023-05-19T09:45:08;100343.38;;;25.98;26.36
50672;BME280;46021;55.882;37.654;2023-05-19T09:47:35;100344.63;;;26.25;26.77
50672;BME280;46021;55.882;37.654;2023-05-19T09:50:07;100338.84;;;26.51;25.52
50672;BME280;46021;55.882;37.654;2023-05-19T09:52:37;100334.03;;;26.14;25.85
50672;BME280;46021;55.882;37.654;2023-05-19T09:55:09;100325.88;;;26.56;25.71
50672;BME280;46021;55.882;37.654;2023-05-19T09:57:39;100331.78;;;26.90;25.78
50672;BME280;46021;55.882;37.654;2023-05-19T10:00:07;100331.09;;;27.47;25.65
50672;BME280;46021;55.882;37.654;2023-05-19T10:02:40;100335.44;;;27.87;24.67
50672;BME280;46021;55.882;37.654;2023-05-19T10:05:10;100338.78;;;28.08;24.75
50672;BME280;46021;55.882;37.654;2023-05-19T10:07:39;100332.19;;;27.83;23.95
50672;BME280;46021;55.882;37.654;2023-05-19T10:10:11;100325.69;;;27.86;23.78
50672;BME280;46021;55.882;37.654;2023-05-19T10:12:38;100334.16;;;26.93;24.17
50672;BME280;46021;55.882;37.654;2023-05-19T10:15:08;100330.97;;;27.29;23.83
50672;BME280;46021;55.882;37.654;2023-05-19T10:17:37;100323.72;;;25.99;24.11
50672;BME280;46021;55.882;37.654;2023-05-19T10:20:07;100320.97;;;24.60;24.85
50672;BME280;46021;55.882;37.654;2023-05-19T10:22:36;100326.41;;;24.02;25.76
50672;BME280;46021;55.882;37.654;2023-05-19T10:25:06;100311.91;;;23.60;26.28
50672;BME280;46021;55.882;37.654;2023-05-19T10:27:35;100317.44;;;23.21;26.64
50672;BME280;46021;55.882;37.654;2023-05-19T10:30:07;100325.41;;;22.60;26.65
50672;BME280;46021;55.882;37.654;2023-05-19T10:32:37;100315.56;;;21.59;27.89
50672;BME280;46021;55.882;37.654;2023-05-19T10:35:19;100330.47;;;21.88;27.82
50672;BME280;46021;55.882;37.654;2023-05-19T10:37:55;100319.97;;;22.12;28.26
50672;BME280;46021;55.882;37.654;2023-05-19T10:40:28;100325.16;;;21.75;28.09
50672;BME280;46021;55.882;37.654;2023-05-19T10:43:04;100320.25;;;21.94;28.69
50672;BME280;46021;55.882;37.654;2023-05-19T10:45:45;100324.53;;;21.84;28.15
50672;BME280;46021;55.882;37.654;2023-05-19T10:48:13;100329.78;;;20.91;29.44
50672;BME280;46021;55.882;37.654;2023-05-19T10:50:43;100332.75;;;20.99;28.88
50672;BME280;46021;55.882;37.654;2023-05-19T10:53:14;100330.13;;;20.99;29.46
50672;BME280;46021;55.882;37.654;2023-05-19T10:55:50;100334.63;;;21.12;28.80
50672;BME280;46021;55.882;37.654;2023-05-19T10:58:38;100332.03;;;20.83;28.93
50672;BME280;46021;55.882;37.654;2023-05-19T11:01:06;100338.06;;;20.15;29.35
50672;BME280;46021;55.882;37.654;2023-05-19T11:03:46;100334.94;;;20.22;29.60
50672;BME280;46021;55.882;37.654;2023-05-19T11:06:24;100336.16;;;20.31;30.01
50672;BME280;46021;55.882;37.654;2023-05-19T11:08:58;100325.59;;;20.45;29.34
50672;BME280;46021;55.882;37.654;2023-05-19T11:11:43;100326.75;;;19.68;29.63
50672;BME280;46021;55.882;37.654;2023-05-19T11:14:11;100314.28;;;19.09;30.39
50672;BME280;46021;55.882;37.654;2023-05-19T11:16:39;100331.94;;;18.93;30.49
50672;BME280;46021;55.882;37.654;2023-05-19T11:19:08;100332.16;;;19.04;30.82
50672;BME280;46021;55.882;37.654;2023-05-19T11:21:45;100338.19;;;19.53;31.09
50672;BME280;46021;55.882;37.654;2023-05-19T11:26:56;100340.16;;;20.38;29.84
50672;BME280;46021;55.882;37.654;2023-05-19T11:29:24;100334.19;;;20.49;29.48
50672;BME280;46021;55.882;37.654;2023-05-19T11:31:54;100329.94;;;20.32;29.36
50672;BME280;46021;55.882;37.654;2023-05-19T11:34:22;100332.56;;;19.59;29.26
50672;BME280;46021;55.882;37.654;2023-05-19T11:36:51;100331.91;;;19.85;29.64
50672;BME280;46021;55.882;37.654;2023-05-19T11:39:19;100336.44;;;19.98;28.74
50672;BME280;46021;55.882;37.654;2023-05-19T11:41:46;100330.41;;;20.24;28.84
50672;BME280;46021;55.882;37.654;2023-05-19T11:44:14;100321.19;;;19.42;29.27
50672;BME280;46021;55.882;37.654;2023-05-19T11:46:42;100331.59;;;19.45;29.70
50672;BME280;46021;55.882;37.654;2023-05-19T11:49:09;100324.34;;;19.79;28.98
50672;BME280;46021;55.882;37.654;2023-05-19T11:51:36;100321.00;;;19.15;29.43
50672;BME280;46021;55.882;37.654;2023-05-19T11:54:03;100341.72;;;19.07;29.80
50672;BME280;46021;55.882;37.654;2023-05-19T11:56:33;100330.06;;;19.41;29.64
50672;BME280;46021;55.882;37.654;2023-05-19T11:59:00;100335.00;;;19.47;30.09
50672;BME280;46021;55.882;37.654;2023-05-19T12:01:29;100340.38;;;19.76;29.53
50672;BME280;46021;55.882;37.654;2023-05-19T12:03:56;100321.13;;;20.03;30.02
50672;BME280;46021;55.882;37.654;2023-05-19T12:06:24;100335.88;;;20.07;30.11
50672;BME280;46021;55.882;37.654;2023-05-19T12:08:53;100331.72;;;20.32;29.71
50672;BME280;46021;55.882;37.654;2023-05-19T12:11:22;100334.94;;;20.66;28.66
50672;BME280;46021;55.882;37.654;2023-05-19T12:13:49;100343.47;;;20.42;29.93
50672;BME280;46021;55.882;37.654;2023-05-19T12:16:19;100331.72;;;20.46;29.79
50672;BME280;46021;55.882;37.654;2023-05-19T12:18:47;100337.47;;;20.53;29.04
50672;BME280;46021;55.882;37.654;2023-05-19T12:21:14;100335.47;;;20.56;29.75
50672;BME280;46021;55.882;37.654;2023-05-19T12:23:42;100334.44;;;20.01;28.66
50672;BME280;46021;55.882;37.654;2023-05-19T12:26:10;100341.22;;;19.77;29.31
50672;BME280;46021;55.882;37.654;2023-05-19T12:28:37;100328.56;;;19.21;29.85
50672;BME280;46021;55.882;37.654;2023-05-19T12:31:05;100336.41;;;19.23;30.28
50672;BME280;46021;55.882;37.654;2023-05-19T12:33:32;100341.41;;;19.43;30.53
50672;BME280;46021;55.882;37.654;2023-05-19T12:36:01;100338.63;;;19.15;30.57
50672;BME280;46021;55.882;37.654;2023-05-19T12:38:28;100341.25;;;19.31;30.53
50672;BME280;46021;55.882;37.654;2023-05-19T12:40:57;100343.69;;;19.50;30.38
50672;BME280;46021;55.882;37.654;2023-05-19T12:43:25;100350.00;;;19.47;30.07
50672;BME280;46021;55.882;37.654;2023-05-19T12:45:52;100357.06;;;19.46;29.98
50672;BME280;46021;55.882;37.654;2023-05-19T12:48:28;100353.66;;;19.44;29.61
50672;BME280;46021;55.882;37.654;2023-05-19T12:50:55;100364.00;;;19.33;29.51
50672;BME280;46021;55.882;37.654;2023-05-19T12:53:25;100350.19;;;19.28;29.44
50672;BME280;46021;55.882;37.654;2023-05-19T12:55:52;100354.72;;;19.26;29.65
50672;BME280;46021;55.882;37.654;2023-05-19T12:58:19;100354.47;;;19.15;29.32
50672;BME280;46021;55.882;37.654;2023-05-19T13:00:47;100347.19;;;19.04;29.90